createdAt,value
2023-02-01T00:01:15.524Z,86.85
2023-02-01T00:03:42.249Z,86.74
2023-02-01T00:06:09.160Z,86.89
2023-02-01T00:08:36.341Z,86.91
2023-02-01T00:11:06.420Z,86.83
2023-02-01T00:13:35.291Z,86.92
2023-02-01T00:16:20.475Z,87.08
2023-02-01T00:18:49.370Z,87.02
2023-02-01T00:21:18.149Z,86.90
2023-02-01T00:23:45.281Z,86.78
2023-02-01T00:26:31.237Z,86.95
2023-02-01T00:28:58.077Z,87.04
2023-02-01T00:31:25.676Z,87.25
2023-02-01T00:33:53.755Z,87.42
2023-02-01T00:36:20.456Z,87.22
2023-02-01T00:38:47.481Z,87.25
2023-02-01T00:41:19.317Z,87.11
2023-02-01T00:43:46.894Z,87.11
2023-02-01T00:46:15.446Z,87.31
2023-02-01T00:48:42.509Z,87.39
2023-02-01T00:51:13.231Z,87.67
2023-02-01T00:53:40.033Z,87.42
2023-02-01T00:56:07.313Z,87.64
2023-02-01T00:58:34.470Z,87.44
2023-02-01T01:01:07.087Z,87.53
2023-02-01T01:03:36.149Z,87.38
2023-02-01T01:06:06.382Z,87.20
2023-02-01T01:08:33.853Z,87.30
2023-02-01T01:11:05.669Z,87.16
2023-02-01T01:13:32.547Z,87.40
2023-02-01T01:16:03.741Z,87.19
2023-02-01T01:18:34.715Z,87.59
2023-02-01T01:21:01.785Z,87.41
2023-02-01T01:23:29.150Z,87.44
2023-02-01T01:25:56.120Z,87.69
2023-02-01T01:28:23.085Z,87.73
2023-02-01T01:30:50.035Z,87.63
2023-02-01T01:33:16.864Z,87.62
2023-02-01T01:35:43.645Z,88.03
2023-02-01T01:38:12.448Z,88.00
2023-02-01T01:40:39.727Z,87.69
2023-02-01T01:43:15.147Z,87.97
2023-02-01T01:45:42.259Z,88.13
2023-02-01T01:48:29.543Z,88.06
2023-02-01T01:51:11.378Z,87.90
2023-02-01T01:53:45.435Z,88.06
2023-02-01T01:56:13.433Z,88.06
2023-02-01T01:58:40.558Z,88.11
2023-02-01T02:01:07.418Z,88.23
2023-02-01T02:03:40.291Z,88.27
2023-02-01T02:06:24.916Z,88.55
2023-02-01T02:08:52.518Z,88.59
2023-02-01T02:11:19.484Z,88.86
2023-02-01T02:13:51.016Z,88.92
2023-02-01T02:16:40.732Z,88.90
2023-02-01T02:19:29.367Z,88.95
2023-02-01T02:22:34.732Z,89.27
2023-02-01T02:25:23.291Z,89.12
2023-02-01T02:28:01.772Z,89.11
2023-02-01T02:30:43.660Z,89.54
2023-02-01T02:33:43.881Z,89.53
2023-02-01T02:36:39.076Z,89.85
2023-02-01T02:39:09.576Z,89.62
2023-02-01T02:42:39.360Z,89.85
2023-02-01T02:45:32.781Z,89.91
2023-02-01T02:48:28.463Z,90.24
2023-02-01T02:51:16.630Z,90.15
2023-02-01T02:54:22.535Z,90.33
2023-02-01T02:57:09.634Z,90.35
2023-02-01T02:59:56.448Z,90.19
2023-02-01T03:02:42.286Z,90.27
2023-02-01T03:05:09.213Z,90.11
2023-02-01T03:07:44.763Z,90.33
2023-02-01T03:10:50.267Z,90.25
2023-02-01T03:13:37.496Z,90.25
2023-02-01T03:16:27.871Z,90.49
2023-02-01T03:19:27.638Z,90.70
2023-02-01T03:24:38.348Z,90.37
2023-02-01T03:27:12.246Z,90.36
2023-02-01T03:29:47.720Z,90.38
2023-02-01T03:32:14.868Z,90.84
2023-02-01T03:34:42.046Z,90.53
2023-02-01T03:37:12.659Z,90.77
2023-02-01T03:40:03.265Z,90.71
2023-02-01T03:42:38.509Z,90.81
2023-02-01T03:45:14.323Z,90.60
2023-02-01T03:47:44.828Z,90.76
2023-02-01T03:50:16.806Z,90.86
2023-02-01T03:52:45.069Z,90.95
2023-02-01T03:55:14.338Z,90.96
2023-02-01T03:57:52.862Z,90.93
2023-02-01T04:00:23.532Z,91.04
2023-02-01T04:02:51.811Z,91.02
2023-02-01T04:05:18.638Z,91.23
2023-02-01T04:07:45.693Z,90.90
2023-02-01T04:10:13.212Z,91.25
2023-02-01T04:12:40.093Z,91.36
2023-02-01T04:15:07.501Z,91.11
2023-02-01T04:17:34.329Z,91.18
2023-02-01T04:20:01.026Z,91.23
2023-02-01T04:22:27.689Z,91.16
2023-02-01T04:24:54.384Z,91.49
2023-02-01T04:27:21.128Z,91.24
2023-02-01T04:29:47.837Z,91.26
2023-02-01T04:32:14.520Z,91.22
2023-02-01T04:34:41.183Z,91.00
2023-02-01T04:37:10.563Z,91.11
2023-02-01T04:39:37.291Z,91.13
2023-02-01T04:42:04.156Z,91.54
2023-02-01T04:44:30.845Z,90.96
2023-02-01T04:46:57.714Z,91.06
2023-02-01T04:49:26.537Z,90.97
2023-02-01T04:51:53.395Z,90.91
2023-02-01T04:54:21.133Z,90.98
2023-02-01T04:56:47.846Z,90.80
2023-02-01T04:59:14.648Z,91.07
2023-02-01T05:01:41.520Z,91.05
2023-02-01T05:04:08.272Z,90.96
2023-02-01T05:06:35.861Z,90.87
2023-02-01T05:09:02.537Z,90.87
2023-02-01T05:11:47.820Z,90.82
2023-02-01T05:14:14.470Z,90.76
2023-02-01T05:16:41.195Z,90.35
2023-02-01T05:19:07.893Z,90.67
2023-02-01T05:21:34.559Z,90.64
2023-02-01T05:24:10.389Z,90.64
2023-02-01T05:26:38.797Z,90.60
2023-02-01T05:29:06.662Z,90.60
2023-02-01T05:31:33.775Z,90.39
2023-02-01T05:34:00.523Z,90.58
2023-02-01T05:36:27.436Z,90.56
2023-02-01T05:38:54.366Z,90.46
2023-02-01T05:41:21.035Z,90.34
2023-02-01T05:43:47.699Z,90.27
2023-02-01T05:46:14.583Z,90.48
2023-02-01T05:48:43.978Z,90.42
2023-02-01T05:51:11.603Z,90.57
2023-02-01T05:53:38.346Z,90.52
2023-02-01T05:56:05.589Z,90.29
2023-02-01T05:58:32.457Z,90.49
2023-02-01T06:01:03.955Z,90.38
2023-02-01T06:03:30.755Z,90.57
2023-02-01T06:05:57.547Z,90.32
2023-02-01T06:08:26.716Z,90.42
2023-02-01T06:11:02.329Z,90.48
2023-02-01T06:13:29.520Z,90.39
2023-02-01T06:15:56.998Z,90.57
2023-02-01T06:18:25.615Z,90.29
2023-02-01T06:21:01.482Z,90.82
2023-02-01T06:23:29.673Z,90.45
2023-02-01T06:26:05.705Z,90.73
2023-02-01T06:28:33.829Z,90.74
2023-02-01T06:31:08.358Z,90.81
2023-02-01T06:33:36.070Z,90.76
2023-02-01T06:36:05.443Z,90.79
2023-02-01T06:38:32.480Z,90.97
2023-02-01T06:40:59.269Z,90.85
2023-02-01T06:43:28.221Z,90.90
2023-02-01T06:45:59.805Z,90.88
2023-02-01T06:48:26.768Z,91.27
2023-02-01T06:50:53.511Z,90.89
2023-02-01T06:53:20.256Z,91.09
2023-02-01T06:56:02.117Z,91.35
2023-02-01T06:58:33.838Z,91.08
2023-02-01T07:01:11.338Z,91.04
2023-02-01T07:03:38.582Z,91.44
2023-02-01T07:06:06.166Z,91.29
2023-02-01T07:08:35.193Z,91.30
2023-02-01T07:11:06.577Z,91.69
2023-02-01T07:13:33.353Z,91.50
2023-02-01T07:16:01.730Z,91.70
2023-02-01T07:18:30.534Z,91.65
2023-02-01T07:20:57.852Z,91.54
2023-02-01T07:23:25.280Z,91.76
2023-02-01T07:25:56.946Z,91.85
2023-02-01T07:28:24.816Z,91.87
2023-02-01T07:30:54.644Z,91.86
2023-02-01T07:33:23.244Z,91.85
2023-02-01T07:35:51.167Z,91.81
2023-02-01T07:38:18.839Z,91.75
2023-02-01T07:40:45.540Z,91.77
2023-02-01T07:43:12.248Z,91.85
2023-02-01T07:45:38.987Z,91.80
2023-02-01T07:48:05.805Z,91.91
2023-02-01T07:50:32.836Z,91.95
2023-02-01T07:53:01.750Z,91.83
2023-02-01T07:55:29.386Z,92.02
2023-02-01T07:57:59.838Z,91.97
2023-02-01T08:00:45.729Z,92.04
2023-02-01T08:03:12.514Z,92.30
2023-02-01T08:05:39.301Z,92.19
2023-02-01T08:08:06.386Z,92.32
2023-02-01T08:10:33.300Z,92.27
2023-02-01T08:13:01.040Z,92.50
2023-02-01T08:15:28.799Z,92.39
2023-02-01T08:17:56.147Z,92.38
2023-02-01T08:20:29.696Z,92.37
2023-02-01T08:22:57.546Z,92.48
2023-02-01T08:25:24.789Z,92.59
2023-02-01T08:27:51.943Z,92.73
2023-02-01T08:30:18.917Z,92.81
2023-02-01T08:32:45.583Z,92.76
2023-02-01T08:35:13.282Z,92.80
2023-02-01T08:37:40.037Z,93.09
2023-02-01T08:40:07.519Z,92.68
2023-02-01T08:42:52.035Z,92.73
2023-02-01T08:45:27.166Z,92.79
2023-02-01T08:47:53.893Z,92.87
2023-02-01T08:50:22.137Z,92.82
2023-02-01T08:52:49.312Z,93.04
2023-02-01T08:55:16.651Z,92.79
2023-02-01T08:57:43.771Z,92.95
2023-02-01T09:00:14.683Z,92.82
2023-02-01T09:02:41.379Z,92.77
2023-02-01T09:05:08.546Z,92.67
2023-02-01T09:07:36.002Z,92.55
2023-02-01T09:10:03.354Z,92.53
2023-02-01T09:12:32.299Z,92.34
2023-02-01T09:15:00.577Z,92.27
2023-02-01T09:20:00.410Z,92.23
2023-02-01T09:22:27.283Z,92.09
2023-02-01T09:24:55.342Z,92.21
2023-02-01T09:27:23.024Z,92.18
2023-02-01T09:29:53.583Z,92.11
2023-02-01T09:32:25.187Z,91.96
2023-02-01T09:34:53.373Z,91.91
2023-02-01T09:37:20.971Z,91.92
2023-02-01T09:39:47.792Z,91.73
2023-02-01T09:42:39.268Z,91.60
2023-02-01T09:45:29.217Z,91.46
2023-02-01T09:48:00.727Z,91.45
2023-02-01T09:50:51.270Z,91.32
2023-02-01T09:53:33.253Z,91.29
2023-02-01T09:56:07.455Z,91.44
2023-02-01T09:58:57.419Z,91.37
2023-02-01T10:01:26.582Z,91.40
2023-02-01T10:04:02.528Z,91.34
2023-02-01T10:06:39.748Z,91.28
2023-02-01T10:09:58.976Z,91.07
2023-02-01T10:12:37.349Z,91.28
2023-02-01T10:15:20.811Z,91.03
2023-02-01T10:18:38.671Z,91.20
2023-02-01T10:22:03.694Z,90.98
2023-02-01T10:24:47.445Z,90.81
2023-02-01T10:27:27.258Z,90.71
2023-02-01T10:30:01.638Z,90.47
2023-02-01T10:32:35.813Z,90.56
2023-02-01T10:35:13.960Z,90.76
2023-02-01T10:37:42.974Z,90.85
2023-02-01T10:40:22.718Z,90.51
2023-02-01T10:42:52.383Z,90.36
2023-02-01T10:45:22.586Z,90.29
2023-02-01T10:47:51.223Z,90.25
2023-02-01T10:50:41.655Z,90.15
2023-02-01T10:53:18.360Z,90.39
2023-02-01T10:55:53.584Z,90.18
2023-02-01T10:58:33.813Z,89.92
2023-02-01T11:01:11.296Z,89.95
2023-02-01T11:03:45.086Z,89.80
2023-02-01T11:06:29.192Z,89.80
2023-02-01T11:09:02.240Z,89.94
2023-02-01T11:11:30.195Z,89.74
2023-02-01T11:14:02.826Z,89.62
2023-02-01T11:16:34.124Z,89.52
2023-02-01T11:19:00.928Z,89.61
2023-02-01T11:21:28.681Z,89.51
2023-02-01T11:23:55.879Z,89.66
2023-02-01T11:26:27.376Z,89.77
2023-02-01T11:29:00.931Z,89.81
2023-02-01T11:31:29.322Z,89.92
2023-02-01T11:34:05.902Z,89.75
2023-02-01T11:36:34.865Z,89.47
2023-02-01T11:39:13.657Z,89.55
2023-02-01T11:41:59.505Z,89.30
2023-02-01T11:44:33.890Z,89.23
2023-02-01T11:47:19.109Z,89.24
2023-02-01T11:49:45.944Z,89.24
2023-02-01T11:52:17.874Z,89.16
2023-02-01T11:55:09.523Z,89.07
2023-02-01T11:57:54.085Z,89.04
2023-02-01T12:00:42.313Z,89.04
2023-02-01T12:03:47.199Z,88.82
2023-02-01T12:06:13.779Z,88.44
2023-02-01T12:08:42.441Z,88.55
2023-02-01T12:11:31.128Z,88.50
2023-02-01T12:14:20.312Z,88.44
2023-02-01T12:17:02.007Z,88.47
2023-02-01T12:19:56.992Z,88.30
2023-02-01T12:22:58.333Z,87.94
2023-02-01T12:25:30.948Z,88.05
2023-02-01T12:28:05.793Z,88.01
2023-02-01T12:31:13.644Z,87.83
2023-02-01T12:33:43.193Z,88.07
2023-02-01T12:36:38.097Z,87.90
2023-02-01T12:39:37.276Z,87.61
2023-02-01T12:42:17.117Z,87.39
2023-02-01T12:45:34.386Z,87.07
2023-02-01T12:48:36.022Z,86.93
2023-02-01T12:51:08.699Z,86.68
2023-02-01T12:53:45.515Z,86.34
2023-02-01T12:56:20.882Z,86.52
2023-02-01T12:58:51.835Z,86.28
2023-02-01T13:01:22.394Z,86.27
2023-02-01T13:03:57.607Z,85.89
2023-02-01T13:06:46.091Z,85.92
2023-02-01T13:09:45.657Z,85.63
2023-02-01T13:12:17.794Z,85.62
2023-02-01T13:15:04.754Z,85.36
2023-02-01T13:17:34.711Z,85.33
2023-02-01T13:20:25.381Z,85.04
2023-02-01T13:23:02.316Z,85.03
2023-02-01T13:25:41.073Z,84.67
2023-02-01T13:28:25.818Z,84.84
2023-02-01T13:31:22.364Z,84.63
2023-02-01T13:34:10.173Z,84.41
2023-02-01T13:36:46.038Z,83.86
2023-02-01T13:39:34.446Z,83.84
2023-02-01T13:42:15.075Z,83.72
2023-02-01T13:44:59.841Z,83.43
2023-02-01T13:47:33.768Z,83.27
2023-02-01T13:50:20.574Z,82.92
2023-02-01T13:52:54.943Z,82.66
2023-02-01T13:55:21.721Z,82.42
2023-02-01T13:58:00.372Z,82.17
2023-02-01T14:00:35.112Z,81.70
2023-02-01T14:03:02.902Z,81.46
2023-02-01T14:05:30.573Z,81.22
2023-02-01T14:08:08.853Z,81.10
2023-02-01T14:11:00.831Z,81.19
2023-02-01T14:13:41.758Z,81.00
2023-02-01T14:16:17.697Z,81.05
2023-02-01T14:18:46.688Z,81.00
2023-02-01T14:21:22.824Z,81.03
2023-02-01T14:24:03.603Z,81.01
2023-02-01T14:26:36.450Z,81.07
2023-02-01T14:29:22.078Z,80.97
2023-02-01T14:32:07.225Z,81.10
2023-02-01T14:34:49.106Z,80.90
2023-02-01T14:37:18.821Z,80.79
2023-02-01T14:39:45.399Z,80.87
2023-02-01T14:42:23.176Z,80.79
2023-02-01T14:44:59.122Z,80.72
2023-02-01T14:47:30.124Z,80.71
2023-02-01T14:50:11.729Z,80.75
2023-02-01T14:52:44.564Z,80.56
2023-02-01T14:55:28.101Z,80.36
2023-02-01T14:57:59.158Z,80.43
2023-02-01T15:00:29.743Z,80.20
2023-02-01T15:03:21.393Z,80.28
2023-02-01T15:05:56.117Z,80.20
2023-02-01T15:08:29.010Z,80.10
2023-02-01T15:10:57.195Z,79.92
2023-02-01T15:13:28.624Z,79.87
2023-02-01T15:16:23.853Z,79.92
2023-02-01T15:18:50.660Z,80.08
2023-02-01T15:21:28.922Z,79.71
2023-02-01T15:24:12.463Z,79.64
2023-02-01T15:26:39.266Z,79.51
2023-02-01T15:29:06.008Z,79.51
2023-02-01T15:31:36.033Z,79.56
2023-02-01T15:34:02.926Z,79.31
2023-02-01T15:36:29.937Z,79.57
2023-02-01T15:39:26.866Z,79.32
2023-02-01T15:41:59.524Z,79.02
2023-02-01T15:44:31.647Z,79.08
2023-02-01T15:46:59.696Z,79.06
2023-02-01T15:49:29.776Z,79.00
2023-02-01T15:51:58.932Z,79.10
2023-02-01T15:54:33.319Z,78.97
2023-02-01T15:57:03.348Z,79.08
2023-02-01T15:59:45.492Z,79.00
2023-02-01T16:02:52.838Z,78.97
2023-02-01T16:05:38.225Z,79.11
2023-02-01T16:08:16.146Z,79.21
2023-02-01T16:10:48.839Z,79.24
2023-02-01T16:13:17.182Z,79.06
2023-02-01T16:15:44.579Z,79.10
2023-02-01T16:18:12.873Z,79.25
2023-02-01T16:20:43.638Z,79.21
2023-02-01T16:23:11.671Z,78.95
2023-02-01T16:25:39.392Z,78.95
2023-02-01T16:28:06.482Z,78.91
2023-02-01T16:30:34.268Z,78.91
2023-02-01T16:33:06.412Z,78.89
2023-02-01T16:35:37.808Z,78.71
2023-02-01T16:38:14.318Z,78.73
2023-02-01T16:40:43.021Z,78.73
2023-02-01T16:43:18.397Z,78.88
2023-02-01T16:45:49.459Z,78.90
2023-02-01T16:48:38.107Z,78.95
2023-02-01T16:51:14.103Z,78.79
2023-02-01T16:53:53.533Z,78.96
2023-02-01T16:56:29.919Z,78.85
2023-02-01T16:58:57.395Z,78.97
2023-02-01T17:01:24.932Z,78.82
2023-02-01T17:03:51.815Z,79.00
2023-02-01T17:06:22.654Z,79.01
2023-02-01T17:08:53.527Z,79.20
2023-02-01T17:11:20.307Z,79.17
2023-02-01T17:13:47.683Z,79.31
2023-02-01T17:16:27.921Z,79.46
2023-02-01T17:19:16.291Z,79.50
2023-02-01T17:21:47.407Z,79.60
2023-02-01T17:24:15.657Z,79.66
2023-02-01T17:26:43.870Z,79.85
2023-02-01T17:29:11.373Z,79.72
2023-02-01T17:31:41.896Z,79.81
2023-02-01T17:34:15.636Z,79.84
2023-02-01T17:36:43.454Z,79.73
2023-02-01T17:39:11.147Z,79.83
2023-02-01T17:41:39.556Z,79.88
2023-02-01T17:44:06.366Z,80.05
2023-02-01T17:46:33.091Z,80.07
2023-02-01T17:49:01.399Z,80.19
2023-02-01T17:51:29.329Z,80.51
2023-02-01T17:53:56.542Z,80.17
2023-02-01T17:56:25.486Z,80.46
2023-02-01T17:58:52.340Z,80.46
2023-02-01T18:01:23.483Z,80.65
2023-02-01T18:03:51.050Z,80.62
2023-02-01T18:06:21.309Z,80.59
2023-02-01T18:08:48.344Z,80.66
2023-02-01T18:11:18.057Z,80.85
2023-02-01T18:13:45.796Z,80.80
2023-02-01T18:16:33.912Z,80.95
2023-02-01T18:19:05.074Z,81.07
2023-02-01T18:21:43.934Z,81.14
2023-02-01T18:24:15.035Z,81.19
2023-02-01T18:26:42.877Z,81.10
2023-02-01T18:29:09.682Z,81.34
2023-02-01T18:31:44.364Z,81.40
2023-02-01T18:34:14.378Z,81.25
2023-02-01T18:36:41.977Z,81.52
2023-02-01T18:39:09.464Z,81.40
2023-02-01T18:41:36.098Z,81.53
2023-02-01T18:44:03.256Z,81.62
2023-02-01T18:46:30.093Z,81.66
2023-02-01T18:48:56.735Z,81.56
2023-02-01T18:51:24.631Z,81.58
2023-02-01T18:53:51.723Z,81.71
2023-02-01T18:56:19.621Z,81.63
2023-02-01T18:58:46.537Z,81.75
2023-02-01T19:01:17.177Z,81.93
2023-02-01T19:03:46.464Z,81.84
2023-02-01T19:06:20.731Z,82.00
2023-02-01T19:08:47.943Z,82.02
2023-02-01T19:11:14.734Z,82.10
2023-02-01T19:13:41.800Z,82.34
2023-02-01T19:16:11.919Z,82.25
2023-02-01T19:18:39.363Z,82.24
2023-02-01T19:21:09.032Z,82.46
2023-02-01T19:23:36.160Z,82.51
2023-02-01T19:26:02.870Z,82.63
2023-02-01T19:28:30.200Z,82.62
2023-02-01T19:31:04.860Z,82.81
2023-02-01T19:33:32.020Z,82.85
2023-02-01T19:35:59.878Z,82.97
2023-02-01T19:38:26.996Z,83.23
2023-02-01T19:40:56.024Z,83.14
2023-02-01T19:43:23.298Z,83.37
2023-02-01T19:45:50.077Z,83.39
2023-02-01T19:48:18.736Z,83.46
2023-02-01T19:50:45.839Z,83.65
2023-02-01T19:53:12.962Z,83.82
2023-02-01T19:55:44.588Z,83.88
2023-02-01T19:58:11.205Z,84.02
2023-02-01T20:00:36.922Z,84.16
2023-02-01T20:03:03.699Z,84.29
2023-02-01T20:05:30.410Z,84.38
2023-02-01T20:07:57.671Z,84.51
2023-02-01T20:10:24.793Z,84.53
2023-02-01T20:12:51.510Z,84.63
2023-02-01T20:15:18.281Z,84.85
2023-02-01T20:17:45.016Z,84.82
2023-02-01T20:20:11.792Z,84.93
2023-02-01T20:22:38.504Z,84.88
2023-02-01T20:25:06.180Z,84.95
2023-02-01T20:27:33.864Z,85.11
2023-02-01T20:30:00.603Z,85.21
2023-02-01T20:32:27.344Z,85.28
2023-02-01T20:34:54.582Z,85.32
2023-02-01T20:37:21.616Z,85.68
2023-02-01T20:39:48.365Z,85.64
2023-02-01T20:42:15.072Z,85.77
2023-02-01T20:44:43.807Z,85.87
2023-02-01T20:47:10.427Z,85.77
2023-02-01T20:49:37.807Z,85.96
2023-02-01T20:52:04.480Z,86.07
2023-02-01T20:54:32.538Z,86.02
2023-02-01T20:56:59.241Z,86.24
2023-02-01T20:59:25.932Z,86.28
2023-02-01T21:01:53.112Z,86.34
2023-02-01T21:04:25.257Z,86.16
2023-02-01T21:06:51.833Z,86.30
2023-02-01T21:09:18.726Z,86.54
2023-02-01T21:11:46.098Z,86.58
2023-02-01T21:14:12.790Z,86.57
2023-02-01T21:16:39.728Z,86.98
2023-02-01T21:19:06.794Z,86.82
2023-02-01T21:21:33.478Z,87.08
2023-02-01T21:24:00.684Z,87.00
2023-02-01T21:26:28.353Z,87.02
2023-02-01T21:28:56.438Z,87.07
2023-02-01T21:31:25.777Z,86.97
2023-02-01T21:33:53.024Z,87.08
2023-02-01T21:36:20.131Z,87.08
2023-02-01T21:38:51.534Z,87.21
2023-02-01T21:41:43.365Z,87.17
2023-02-01T21:44:11.348Z,87.17
2023-02-01T21:46:38.036Z,87.32
2023-02-01T21:49:06.315Z,87.51
2023-02-01T21:51:35.356Z,87.43
2023-02-01T21:54:02.156Z,87.70
2023-02-01T21:56:29.333Z,87.78
2023-02-01T21:58:56.162Z,87.84
2023-02-01T22:01:23.190Z,87.98
2023-02-01T22:03:49.900Z,87.96
2023-02-01T22:06:28.764Z,88.10
2023-02-01T22:08:55.603Z,88.22
2023-02-01T22:11:22.537Z,88.30
2023-02-01T22:13:49.357Z,88.26
2023-02-01T22:16:18.235Z,88.41
2023-02-01T22:18:45.835Z,88.49
2023-02-01T22:21:12.849Z,88.53
2023-02-01T22:23:39.512Z,88.79
2023-02-01T22:26:09.080Z,88.78
2023-02-01T22:28:37.201Z,88.86
2023-02-01T22:31:05.549Z,89.14
2023-02-01T22:33:33.681Z,89.34
2023-02-01T22:36:01.248Z,89.37
2023-02-01T22:38:34.193Z,89.61
2023-02-01T22:41:06.250Z,89.70
2023-02-01T22:43:33.782Z,89.90
2023-02-01T22:46:06.681Z,89.92
2023-02-01T22:48:36.815Z,90.16
2023-02-01T22:51:04.260Z,90.25
2023-02-01T22:53:31.755Z,90.51
2023-02-01T22:56:06.370Z,90.65
2023-02-01T22:58:36.005Z,90.69
2023-02-01T23:01:10.499Z,90.80
2023-02-01T23:03:38.845Z,91.04
2023-02-01T23:06:07.383Z,91.07
2023-02-01T23:08:39.510Z,91.17
2023-02-01T23:11:09.160Z,91.17
2023-02-01T23:13:37.008Z,91.26
2023-02-01T23:16:09.491Z,91.35
2023-02-01T23:18:36.338Z,91.48
2023-02-01T23:21:05.435Z,91.62
2023-02-01T23:23:32.175Z,91.73
2023-02-01T23:25:59.113Z,92.10
2023-02-01T23:28:27.069Z,91.91
2023-02-01T23:30:54.219Z,92.13
2023-02-01T23:33:25.034Z,92.07
2023-02-01T23:36:12.371Z,92.16
2023-02-01T23:38:39.067Z,92.51
2023-02-01T23:41:07.471Z,92.45
2023-02-01T23:43:52.705Z,92.71
2023-02-01T23:46:19.875Z,92.79
2023-02-01T23:48:48.454Z,92.90
2023-02-01T23:51:16.029Z,93.25
2023-02-01T23:53:44.837Z,93.03
2023-02-01T23:56:23.831Z,93.29
2023-02-01T23:58:51.987Z,93.41
